createdAt,value
2023-05-24T00:01:45.885Z,16.2
2023-05-24T00:04:12.001Z,16.2
2023-05-24T00:06:38.073Z,16.1
2023-05-24T00:09:04.171Z,16.1
2023-05-24T00:11:30.272Z,16
2023-05-24T00:13:56.368Z,16
2023-05-24T00:16:22.484Z,15.9
2023-05-24T00:18:47.563Z,15.9
2023-05-24T00:21:13.663Z,15.8
2023-05-24T00:23:39.800Z,15.8
2023-05-24T00:26:05.854Z,15.8
2023-05-24T00:28:31.942Z,15.7
2023-05-24T00:30:58.058Z,15.7
2023-05-24T00:33:24.209Z,15.7
2023-05-24T00:35:50.224Z,15.7
2023-05-24T00:38:16.319Z,15.6
2023-05-24T00:40:42.426Z,15.6
2023-05-24T00:43:28.344Z,15.6
2023-05-24T00:45:34.603Z,15.5
2023-05-24T00:48:00.708Z,15.5
2023-05-24T00:50:25.812Z,15.5
2023-05-24T00:52:51.916Z,15.4
2023-05-24T00:55:18.007Z,15.4
2023-05-24T00:57:44.204Z,15.3
2023-05-24T01:00:10.202Z,15.3
2023-05-24T01:02:36.291Z,15.2
2023-05-24T01:05:02.447Z,15.2
2023-05-24T01:07:28.502Z,15.2
2023-05-24T01:09:54.588Z,15.2
2023-05-24T01:12:20.692Z,15.2
2023-05-24T01:14:46.799Z,15.2
2023-05-24T01:17:12.866Z,15.2
2023-05-24T01:19:38.968Z,15.2
2023-05-24T01:22:04.099Z,15.1
2023-05-24T01:24:30.157Z,15
2023-05-24T01:26:56.255Z,15
2023-05-24T01:29:22.367Z,14.9
2023-05-24T01:31:48.461Z,14.8
2023-05-24T01:34:14.563Z,14.8
2023-05-24T01:36:40.657Z,14.7
2023-05-24T01:39:06.735Z,14.7
2023-05-24T01:41:32.844Z,14.6
2023-05-24T01:43:58.939Z,14.6
2023-05-24T01:46:25.030Z,14.5
2023-05-24T01:48:51.131Z,14.5
2023-05-24T01:51:17.290Z,14.5
2023-05-24T01:53:42.340Z,14.5
2023-05-24T01:56:08.424Z,14.5
2023-05-24T01:58:34.532Z,14.5
2023-05-24T02:01:00.614Z,14.5
2023-05-24T02:03:26.728Z,14.5
2023-05-24T02:05:52.796Z,14.5
2023-05-24T02:08:18.893Z,14.6
2023-05-24T02:10:44.994Z,14.6
2023-05-24T02:13:11.099Z,14.6
2023-05-24T02:15:37.187Z,14.6
2023-05-24T02:18:03.312Z,14.6
2023-05-24T02:20:29.391Z,14.6
2023-05-24T02:22:55.471Z,14.6
2023-05-24T02:25:20.576Z,14.6
2023-05-24T02:27:46.676Z,14.6
2023-05-24T02:30:12.824Z,14.6
2023-05-24T02:32:38.865Z,14.6
2023-05-24T02:35:04.986Z,14.6
2023-05-24T02:37:30.091Z,14.5
2023-05-24T02:39:56.197Z,14.5
2023-05-24T02:42:22.269Z,14.4
2023-05-24T02:44:48.376Z,14.4
2023-05-24T02:47:14.476Z,14.3
2023-05-24T02:49:40.596Z,14.3
2023-05-24T02:52:06.649Z,14.2
2023-05-24T02:54:32.753Z,14.2
2023-05-24T02:56:58.834Z,14.2
2023-05-24T02:59:24.929Z,14.2
2023-05-24T03:01:51.016Z,14.2
2023-05-24T03:04:17.113Z,14.2
2023-05-24T03:06:43.209Z,14.2
2023-05-24T03:09:08.326Z,14.1
2023-05-24T03:11:34.423Z,14.1
2023-05-24T03:14:00.520Z,14.1
2023-05-24T03:16:26.599Z,14
2023-05-24T03:18:52.697Z,14
2023-05-24T03:21:18.804Z,13.9
2023-05-24T03:23:44.896Z,13.9
2023-05-24T03:26:10.998Z,13.8
2023-05-24T03:28:37.101Z,13.8
2023-05-24T03:31:03.229Z,13.8
2023-05-24T03:33:29.335Z,13.7
2023-05-24T03:35:55.371Z,13.7
2023-05-24T03:38:21.464Z,13.7
2023-05-24T03:40:46.594Z,13.6
2023-05-24T03:43:12.685Z,13.6
2023-05-24T03:45:38.779Z,13.6
2023-05-24T03:48:04.862Z,13.6
2023-05-24T03:50:30.958Z,13.6
2023-05-24T03:52:57.057Z,13.6
2023-05-24T03:55:23.161Z,13.6
2023-05-24T03:57:49.241Z,13.5
2023-05-24T04:00:15.348Z,13.5
2023-05-24T04:02:41.439Z,13.5
2023-05-24T04:05:07.533Z,13.5
2023-05-24T04:07:33.620Z,13.6
2023-05-24T04:09:59.716Z,13.6
2023-05-24T04:12:24.834Z,13.5
2023-05-24T04:14:50.919Z,13.5
2023-05-24T04:17:17.023Z,13.5
2023-05-24T04:19:43.135Z,13.5
2023-05-24T04:22:09.212Z,13.5
2023-05-24T04:24:35.514Z,13.5
2023-05-24T04:27:01.441Z,13.5
2023-05-24T04:29:27.496Z,13.5
2023-05-24T04:31:53.587Z,13.6
2023-05-24T04:34:19.685Z,13.6
2023-05-24T04:36:45.786Z,13.6
2023-05-24T04:39:11.890Z,13.6
2023-05-24T04:41:38.102Z,13.6
2023-05-24T04:44:03.080Z,13.7
2023-05-24T04:46:29.186Z,13.7
2023-05-24T04:48:55.271Z,13.7
2023-05-24T04:51:21.376Z,13.8
2023-05-24T04:53:47.448Z,13.8
2023-05-24T04:56:13.566Z,13.8
2023-05-24T04:58:39.652Z,13.8
2023-05-24T05:01:05.729Z,13.8
2023-05-24T05:03:31.834Z,13.8
2023-05-24T05:05:57.940Z,13.8
2023-05-24T05:08:24.088Z,13.8
2023-05-24T05:10:50.116Z,13.8
2023-05-24T05:13:16.266Z,13.8
2023-05-24T05:15:42.304Z,13.9
2023-05-24T05:18:07.424Z,13.9
2023-05-24T05:20:33.494Z,13.9
2023-05-24T05:22:59.610Z,13.9
2023-05-24T05:25:25.700Z,13.9
2023-05-24T05:27:51.823Z,13.9
2023-05-24T05:30:17.898Z,14
2023-05-24T05:32:44.010Z,14
2023-05-24T05:35:10.093Z,14
2023-05-24T05:37:36.197Z,14
2023-05-24T05:40:02.278Z,14
2023-05-24T05:42:28.373Z,14
2023-05-24T05:44:54.472Z,14
2023-05-24T05:47:20.574Z,14
2023-05-24T05:49:45.679Z,14
2023-05-24T05:52:11.771Z,14.1
2023-05-24T05:54:37.872Z,14.1
2023-05-24T05:57:04.017Z,14.2
2023-05-24T05:59:30.124Z,14.2
2023-05-24T06:01:56.262Z,14.3
2023-05-24T06:04:22.365Z,14.3
2023-05-24T06:06:48.330Z,14.4
2023-05-24T06:09:14.582Z,14.4
2023-05-24T06:11:40.538Z,14.5
2023-05-24T06:14:06.604Z,14.6
2023-05-24T06:16:32.720Z,14.6
2023-05-24T06:18:58.869Z,14.7
2023-05-24T06:21:23.919Z,14.8
2023-05-24T06:23:50.010Z,14.9
2023-05-24T06:28:42.211Z,15
2023-05-24T06:31:08.279Z,15
2023-05-24T06:33:34.392Z,15
2023-05-24T06:36:00.526Z,15.1
2023-05-24T06:38:26.571Z,15.1
2023-05-24T06:40:52.735Z,15.1
2023-05-24T06:43:18.813Z,15.1
2023-05-24T06:45:45.035Z,15.1
2023-05-24T06:48:10.976Z,15.1
2023-05-24T06:50:37.045Z,15.2
2023-05-24T06:53:02.205Z,15.2
2023-05-24T06:55:28.269Z,15.2
2023-05-24T06:57:54.378Z,15.3
2023-05-24T07:00:20.556Z,15.4
2023-05-24T07:02:46.608Z,15.4
2023-05-24T07:05:12.647Z,15.5
2023-05-24T07:10:04.858Z,15.5
2023-05-24T07:12:30.935Z,15.6
2023-05-24T07:14:57.020Z,15.6
2023-05-24T07:17:23.118Z,15.5
2023-05-24T07:19:49.292Z,15.5
2023-05-24T07:22:15.450Z,15.4
2023-05-24T07:24:41.554Z,15.4
2023-05-24T07:27:07.618Z,15.3
2023-05-24T07:29:33.753Z,15.3
2023-05-24T07:31:59.828Z,15.2
2023-05-24T07:34:25.907Z,15.2
2023-05-24T07:36:51.997Z,15.2
2023-05-24T07:39:18.104Z,15.2
2023-05-24T07:41:44.292Z,15.3
2023-05-24T07:44:10.296Z,15.3
2023-05-24T07:46:36.380Z,15.3
2023-05-24T07:49:02.483Z,15.3
2023-05-24T07:51:28.572Z,15.4
2023-05-24T07:53:54.668Z,15.4
2023-05-24T07:56:19.792Z,15.5
2023-05-24T07:58:45.873Z,15.5
2023-05-24T08:01:11.999Z,15.6
2023-05-24T08:03:38.054Z,15.6
2023-05-24T08:06:04.158Z,15.7
2023-05-24T08:08:30.272Z,15.7
2023-05-24T08:10:56.348Z,15.7
2023-05-24T08:13:22.520Z,15.6
2023-05-24T08:15:48.608Z,15.6
2023-05-24T08:18:14.712Z,15.6
2023-05-24T08:20:40.733Z,15.7
2023-05-24T08:23:06.821Z,15.7
2023-05-24T08:25:32.925Z,15.8
2023-05-24T08:27:59.149Z,15.8
2023-05-24T08:30:25.222Z,15.9
2023-05-24T08:32:51.376Z,15.9
2023-05-24T08:35:17.425Z,16
2023-05-24T08:37:43.517Z,16.1
2023-05-24T08:40:09.652Z,16.2
2023-05-24T08:42:35.805Z,16.3
2023-05-24T08:45:01.835Z,16.4
2023-05-24T08:47:27.900Z,16.5
2023-05-24T08:49:53.994Z,16.7
2023-05-24T08:52:20.178Z,16.8
2023-05-24T08:54:46.198Z,16.9
2023-05-24T08:57:12.286Z,16.9
2023-05-24T08:59:37.439Z,16.9
2023-05-24T09:02:03.549Z,16.9
2023-05-24T09:04:29.619Z,17
2023-05-24T09:06:55.733Z,17
2023-05-24T09:09:21.777Z,17
2023-05-24T09:11:47.881Z,16.9
2023-05-24T09:14:14.014Z,16.9
2023-05-24T09:16:40.048Z,16.8
2023-05-24T09:19:06.146Z,16.8
2023-05-24T09:21:32.253Z,16.7
2023-05-24T09:23:58.328Z,16.8
2023-05-24T09:26:24.439Z,16.8
2023-05-24T09:28:50.751Z,16.9
2023-05-24T09:31:16.735Z,16.9
2023-05-24T09:33:42.901Z,16.8
2023-05-24T09:36:09.019Z,16.8
2023-05-24T09:38:35.027Z,16.8
2023-05-24T09:41:01.205Z,16.8
2023-05-24T09:43:27.274Z,16.8
2023-05-24T09:45:53.364Z,16.8
2023-05-24T09:48:19.410Z,16.8
2023-05-24T09:50:45.649Z,16.9
2023-05-24T09:53:11.723Z,16.9
2023-05-24T09:55:37.950Z,16.9
2023-05-24T09:58:03.949Z,16.9
2023-05-24T10:00:29.992Z,17
2023-05-24T10:02:55.106Z,17
2023-05-24T10:05:21.262Z,17
2023-05-24T10:07:47.151Z,16.9
2023-05-24T10:10:13.422Z,16.9
2023-05-24T10:12:39.570Z,16.9
2023-05-24T10:15:05.637Z,16.8
2023-05-24T10:17:31.722Z,16.7
2023-05-24T10:19:57.625Z,16.7
2023-05-24T10:22:23.880Z,16.6
2023-05-24T10:24:49.963Z,16.6
2023-05-24T10:27:16.141Z,16.5
2023-05-24T10:29:42.044Z,16.5
2023-05-24T10:32:08.186Z,16.4
2023-05-24T10:34:34.477Z,16.4
2023-05-24T10:37:00.530Z,16.4
2023-05-24T10:39:26.505Z,16.4
2023-05-24T10:44:18.703Z,16.3
2023-05-24T10:46:43.806Z,16.3
2023-05-24T10:49:09.913Z,16.3
2023-05-24T10:51:36.012Z,16.3
2023-05-24T10:54:02.088Z,16.3
2023-05-24T10:56:28.203Z,16.3
2023-05-24T10:58:54.282Z,16.3
2023-05-24T11:01:20.375Z,16.3
2023-05-24T11:03:46.462Z,16.3
2023-05-24T11:06:12.559Z,16.3
2023-05-24T11:08:38.664Z,16.3
2023-05-24T11:11:04.756Z,16.3
2023-05-24T11:13:30.857Z,16.3
2023-05-24T11:15:56.945Z,16.3
2023-05-24T11:18:23.168Z,16.4
2023-05-24T11:20:49.266Z,16.5
2023-05-24T11:23:15.366Z,16.6
2023-05-24T11:25:41.449Z,16.7
2023-05-24T11:28:07.548Z,16.9
2023-05-24T11:30:33.654Z,17.1
2023-05-24T11:32:59.736Z,17.2
2023-05-24T11:35:25.822Z,17.5
2023-05-24T11:37:51.930Z,17.7
2023-05-24T11:40:18.021Z,18
2023-05-24T11:42:44.106Z,18.2
2023-05-24T11:45:10.205Z,18.3
2023-05-24T11:47:36.287Z,18.3
2023-05-24T11:50:01.397Z,18.4
2023-05-24T11:52:27.502Z,18.3
2023-05-24T11:54:53.596Z,18.3
2023-05-24T11:57:19.698Z,18.3
2023-05-24T11:59:45.794Z,18.3
2023-05-24T12:02:11.905Z,18.1
2023-05-24T12:04:37.980Z,18
2023-05-24T12:07:04.086Z,18
2023-05-24T12:09:30.183Z,18.2
2023-05-24T12:11:56.284Z,18.2
2023-05-24T12:14:22.362Z,18.7
2023-05-24T12:16:48.463Z,19.7
2023-05-24T12:19:14.553Z,20.9
2023-05-24T12:21:40.767Z,22.1
2023-05-24T12:24:06.866Z,23.1
2023-05-24T12:26:32.961Z,23.6
2023-05-24T12:28:59.057Z,23.6
2023-05-24T12:31:25.153Z,23.8
2023-05-24T12:33:51.242Z,24.2
2023-05-24T12:38:43.429Z,24.4
2023-05-24T12:41:09.528Z,24.1
2023-05-24T12:43:35.625Z,23.5
2023-05-24T12:46:01.751Z,23.3
2023-05-24T12:48:27.825Z,23.5
2023-05-24T12:50:53.895Z,24
2023-05-24T12:53:19.016Z,24.5
2023-05-24T12:55:45.097Z,25.2
2023-05-24T12:58:11.198Z,26
2023-05-24T13:00:37.276Z,26.8
2023-05-24T13:03:03.382Z,27.4
2023-05-24T13:05:29.479Z,28
2023-05-24T13:07:55.581Z,28.6
2023-05-24T13:10:21.692Z,28.9
2023-05-24T13:12:47.758Z,29.4
2023-05-24T13:15:13.929Z,29.6
2023-05-24T13:17:39.976Z,30
2023-05-24T13:20:06.060Z,30.5
2023-05-24T13:22:32.159Z,31
2023-05-24T13:24:58.366Z,31.5
2023-05-24T13:27:24.476Z,31.8
2023-05-24T13:29:50.562Z,32.3
2023-05-24T13:32:16.656Z,32.7
2023-05-24T13:34:42.884Z,32.6
2023-05-24T13:37:08.980Z,32.3
2023-05-24T13:39:34.931Z,31.8
2023-05-24T13:42:01.046Z,31.2
2023-05-24T13:44:27.317Z,30.6
2023-05-24T13:46:53.339Z,30.1
2023-05-24T13:49:19.315Z,29.5
2023-05-24T13:51:45.460Z,29
2023-05-24T13:54:11.584Z,28.5
2023-05-24T13:56:36.683Z,28.3
2023-05-24T13:59:02.744Z,28.4
2023-05-24T14:01:28.809Z,28.8
2023-05-24T14:03:54.899Z,29.5
2023-05-24T14:06:21.025Z,30.1
2023-05-24T14:08:47.195Z,30.8
2023-05-24T14:11:13.235Z,31.4
2023-05-24T14:13:39.344Z,31.8
2023-05-24T14:16:05.451Z,32.1
2023-05-24T14:18:31.481Z,32.4
2023-05-24T14:20:57.613Z,32.8
2023-05-24T14:23:23.762Z,33.2
2023-05-24T14:25:49.765Z,33.7
2023-05-24T14:28:15.965Z,34.2
2023-05-24T14:30:42.085Z,34.6
2023-05-24T14:33:08.168Z,34.9
2023-05-24T14:35:34.261Z,35.3
2023-05-24T14:38:00.366Z,35.5
2023-05-24T14:40:26.456Z,35.8
2023-05-24T14:42:52.560Z,36.1
2023-05-24T14:45:18.629Z,36.4
2023-05-24T14:47:44.743Z,36.8
2023-05-24T14:50:10.896Z,37.1
2023-05-24T14:52:36.928Z,37.2
2023-05-24T14:55:03.010Z,37.2
2023-05-24T14:57:29.118Z,37.1
2023-05-24T14:59:54.218Z,37.1
2023-05-24T15:02:20.355Z,37.2
2023-05-24T15:04:46.531Z,37.4
2023-05-24T15:07:12.579Z,37.6
2023-05-24T15:09:38.641Z,37.8
2023-05-24T15:12:04.718Z,37.4
2023-05-24T15:14:30.807Z,36.6
2023-05-24T15:16:56.937Z,35.5
2023-05-24T15:19:23.009Z,34.4
2023-05-24T15:21:49.116Z,33.1
2023-05-24T15:24:15.214Z,31.9
2023-05-24T15:26:41.281Z,30.8
2023-05-24T15:29:07.438Z,29.8
2023-05-24T15:31:33.663Z,28.9
2023-05-24T15:33:59.716Z,28.1
2023-05-24T15:36:25.867Z,27.4
2023-05-24T15:38:51.875Z,26.7
2023-05-24T15:41:17.973Z,26
2023-05-24T15:43:44.087Z,25.6
2023-05-24T15:46:10.177Z,25.5
2023-05-24T15:48:36.272Z,26
2023-05-24T15:51:02.364Z,26.8
2023-05-24T15:53:28.478Z,27.3
2023-05-24T15:55:54.540Z,27.3
2023-05-24T15:58:20.646Z,26.9
2023-05-24T16:00:46.747Z,26.3
2023-05-24T16:03:11.856Z,25.6
2023-05-24T16:05:37.939Z,24.9
2023-05-24T16:08:04.036Z,24.3
2023-05-24T16:10:30.148Z,23.8
2023-05-24T16:12:56.234Z,23.5
2023-05-24T16:15:22.320Z,23.7
2023-05-24T16:17:48.458Z,23.9
2023-05-24T16:20:14.527Z,24
2023-05-24T16:22:40.606Z,23.9
2023-05-24T16:25:06.734Z,23.7
2023-05-24T16:27:32.792Z,23.3
2023-05-24T16:29:58.898Z,23.1
2023-05-24T16:32:25.045Z,23.1
2023-05-24T16:34:51.222Z,23.5
2023-05-24T16:37:17.303Z,24.2
2023-05-24T16:39:43.422Z,25.1
2023-05-24T16:42:09.492Z,25.8
2023-05-24T16:44:35.597Z,25.9
2023-05-24T16:47:01.679Z,25.7
2023-05-24T16:49:27.839Z,25.4
2023-05-24T16:51:53.881Z,25
2023-05-24T16:54:19.961Z,24.6
2023-05-24T16:56:46.082Z,24.3
2023-05-24T16:59:12.186Z,23.9
2023-05-24T17:01:38.238Z,23.7
2023-05-24T17:04:04.355Z,23.6
2023-05-24T17:06:29.460Z,23.7
2023-05-24T17:08:55.577Z,23.8
2023-05-24T17:11:21.664Z,23.8
2023-05-24T17:13:47.784Z,23.9
2023-05-24T17:16:13.833Z,23.9
2023-05-24T17:18:39.956Z,23.8
2023-05-24T17:21:06.033Z,23.6
2023-05-24T17:23:32.137Z,23.3
2023-05-24T17:25:58.228Z,22.9
2023-05-24T17:28:24.310Z,22.6
2023-05-24T17:30:50.407Z,22.2
2023-05-24T17:33:16.506Z,21.8
2023-05-24T17:35:42.599Z,21.5
2023-05-24T17:38:08.805Z,21.2
2023-05-24T17:40:34.903Z,20.9
2023-05-24T17:43:00.985Z,20.7
2023-05-24T17:45:27.133Z,20.5
2023-05-24T17:47:53.183Z,20.3
2023-05-24T17:50:19.272Z,20.2
2023-05-24T17:52:45.383Z,20
2023-05-24T17:55:11.482Z,19.9
2023-05-24T17:57:37.562Z,19.7
2023-05-24T18:00:03.659Z,19.5
2023-05-24T18:02:29.753Z,19.3
2023-05-24T18:04:55.836Z,19.2
2023-05-24T18:07:21.945Z,19.1
2023-05-24T18:09:47.058Z,19
2023-05-24T18:12:13.148Z,18.9
2023-05-24T18:14:39.245Z,18.8
2023-05-24T18:17:05.329Z,18.7
2023-05-24T18:19:31.415Z,18.6
2023-05-24T18:21:57.548Z,18.5
2023-05-24T18:24:23.711Z,18.4
2023-05-24T18:26:49.708Z,18.3
2023-05-24T18:29:15.825Z,18.3
2023-05-24T18:31:41.916Z,18.2
2023-05-24T18:34:08.032Z,18
2023-05-24T18:36:34.132Z,17.9
2023-05-24T18:39:00.272Z,17.8
2023-05-24T18:41:26.431Z,17.7
2023-05-24T18:43:52.637Z,17.6
2023-05-24T18:53:36.888Z,17
2023-05-24T18:56:02.009Z,16.9
2023-05-24T18:58:27.165Z,16.7
2023-05-24T19:00:53.235Z,16.6
2023-05-24T19:03:19.388Z,16.4
2023-05-24T19:05:45.509Z,16.3
2023-05-24T19:08:11.518Z,16.2
2023-05-24T19:10:37.617Z,16
2023-05-24T19:13:03.702Z,15.9
2023-05-24T19:15:29.850Z,15.7
2023-05-24T19:17:55.892Z,15.6
2023-05-24T19:20:21.009Z,15.4
2023-05-24T19:22:46.151Z,15.3
2023-05-24T19:25:12.210Z,15.2
2023-05-24T19:27:38.338Z,15
2023-05-24T19:30:04.400Z,14.9
2023-05-24T19:32:30.697Z,14.8
2023-05-24T19:34:56.613Z,14.7
2023-05-24T19:39:48.793Z,14.4
2023-05-24T19:42:14.899Z,14.3
2023-05-24T19:44:40.974Z,14.2
2023-05-24T19:47:07.084Z,14.1
2023-05-24T19:49:33.272Z,14
2023-05-24T19:51:59.250Z,13.8
2023-05-24T19:54:24.483Z,13.7
2023-05-24T19:56:50.556Z,13.6
2023-05-24T19:59:16.556Z,13.5
2023-05-24T20:01:42.716Z,13.4
2023-05-24T20:04:08.764Z,13.3
2023-05-24T20:06:34.916Z,13.3
2023-05-24T20:09:00.953Z,13.2
2023-05-24T20:11:27.134Z,13.1
2023-05-24T20:13:53.156Z,13
2023-05-24T20:16:19.322Z,13
2023-05-24T20:18:45.321Z,12.9
2023-05-24T20:21:11.421Z,12.8
2023-05-24T20:23:37.512Z,12.8
2023-05-24T20:26:02.659Z,12.7
2023-05-24T20:28:28.703Z,12.7
2023-05-24T20:30:54.809Z,12.6
2023-05-24T20:33:20.914Z,12.6
2023-05-24T20:35:46.993Z,12.6
2023-05-24T20:38:13.095Z,12.6
2023-05-24T20:40:39.216Z,12.5
2023-05-24T20:43:05.291Z,12.5
2023-05-24T20:45:31.443Z,12.5
2023-05-24T20:47:57.487Z,12.4
2023-05-24T20:50:23.587Z,12.4
2023-05-24T20:52:49.682Z,12.4
2023-05-24T20:55:15.768Z,12.3
2023-05-24T20:57:40.864Z,12.3
2023-05-24T21:00:06.967Z,12.3
2023-05-24T21:02:33.055Z,12.4
2023-05-24T21:04:59.160Z,12.4
2023-05-24T21:07:25.277Z,12.4
2023-05-24T21:09:51.339Z,12.4
2023-05-24T21:12:17.429Z,12.5
2023-05-24T21:14:43.544Z,12.5
2023-05-24T21:17:09.688Z,12.5
2023-05-24T21:19:35.773Z,12.6
2023-05-24T21:22:01.827Z,12.6
2023-05-24T21:24:27.914Z,12.6
2023-05-24T21:26:54.080Z,12.7
2023-05-24T21:29:19.125Z,12.7
2023-05-24T21:31:45.220Z,12.7
2023-05-24T21:34:11.388Z,12.7
2023-05-24T21:36:37.441Z,12.8
2023-05-24T21:39:03.508Z,12.8
2023-05-24T21:41:29.651Z,12.8
2023-05-24T21:43:55.682Z,12.8
2023-05-24T21:46:21.811Z,12.8
2023-05-24T21:48:47.899Z,12.8
2023-05-24T21:51:13.973Z,12.8
2023-05-24T21:53:40.137Z,12.8
2023-05-24T21:56:06.144Z,12.8
2023-05-24T21:58:32.293Z,12.8
2023-05-24T22:00:57.374Z,12.8
2023-05-24T22:03:23.455Z,12.8
2023-05-24T22:05:49.565Z,12.8
2023-05-24T22:08:15.652Z,12.8
2023-05-24T22:10:41.748Z,12.8
2023-05-24T22:13:07.846Z,12.8
2023-05-24T22:15:33.922Z,12.7
2023-05-24T22:18:00.047Z,12.7
2023-05-24T22:20:26.142Z,12.7
2023-05-24T22:22:52.221Z,12.7
2023-05-24T22:25:18.323Z,12.8
2023-05-24T22:27:44.408Z,12.8
2023-05-24T22:30:10.508Z,12.8
2023-05-24T22:32:35.601Z,12.7
2023-05-24T22:35:01.710Z,12.7
2023-05-24T22:37:27.809Z,12.6
2023-05-24T22:39:53.891Z,12.5
2023-05-24T22:42:19.990Z,12.5
2023-05-24T22:44:46.091Z,12.4
2023-05-24T22:47:12.180Z,12.3
2023-05-24T22:49:38.305Z,12.2
2023-05-24T22:52:04.427Z,12.1
2023-05-24T22:54:30.465Z,12
2023-05-24T22:56:56.561Z,11.9
2023-05-24T22:59:22.678Z,11.9
2023-05-24T23:01:48.874Z,11.8
2023-05-24T23:04:13.879Z,11.7
2023-05-24T23:06:39.971Z,11.6
2023-05-24T23:09:06.062Z,11.6
2023-05-24T23:11:32.148Z,11.5
2023-05-24T23:13:58.233Z,11.4
2023-05-24T23:16:24.332Z,11.4
2023-05-24T23:18:50.429Z,11.3
2023-05-24T23:21:16.572Z,11.3
2023-05-24T23:23:42.650Z,11.2
2023-05-24T23:26:08.727Z,11.1
2023-05-24T23:28:34.913Z,11.1
2023-05-24T23:31:00.910Z,11.1
2023-05-24T23:33:27.055Z,11
2023-05-24T23:35:52.126Z,11
2023-05-24T23:38:18.308Z,10.9
2023-05-24T23:40:44.369Z,10.9
2023-05-24T23:43:10.414Z,10.9
2023-05-24T23:45:36.504Z,10.8
2023-05-24T23:48:02.619Z,10.8
2023-05-24T23:50:28.687Z,10.8
2023-05-24T23:52:54.813Z,10.7
2023-05-24T23:55:20.882Z,10.7
2023-05-24T23:57:46.981Z,10.7
